Terminal Aerodrome Forecast
Issued by NWS

Home | Current Version | Previous Version | Text Only | Print | Product List | Glossary On
Versions: 1 2 3 4 5 6 7 8 9 10 11 12 13 14 15 16 17 18 19 20 21 22 23 24 25
998
FTUS43 KDLH 242345
TAFHYR
TAF
KHYR 242345Z 2500/2524 32003KT P6SM FEW045
     FM250600 02003KT 5SM BR BKN012
      TEMPO 2508/2511 2SM BR OVC008
     FM251400 08005KT P6SM SCT015
     FM252000 10010KT P6SM VCSH BKN060
     FM252300 09011KT 5SM -SHRA BR SCT025 BKN040=

USA.gov is the U.S. government's official web portal to all federal, state and local government web resources and services.